sensor_id;sensor_type;location;lat;lon;timestamp;P1;durP1;ratioP1;P2;durP2;ratioP2
39974;SDS011;25652;52.852;6.602;2024-01-15T00:01:42;12.40;;;3.33;;
39974;SDS011;25652;52.852;6.602;2024-01-15T00:04:08;8.10;;;2.73;;
39974;SDS011;25652;52.852;6.602;2024-01-15T00:06:33;10.90;;;3.23;;
39974;SDS011;25652;52.852;6.602;2024-01-15T00:08:59;9.98;;;3.40;;
39974;SDS011;25652;52.852;6.602;2024-01-15T00:11:24;9.98;;;3.33;;
39974;SDS011;25652;52.852;6.602;2024-01-15T00:13:50;8.10;;;2.87;;
39974;SDS011;25652;52.852;6.602;2024-01-15T00:16:15;10.10;;;3.60;;
39974;SDS011;25652;52.852;6.602;2024-01-15T00:18:41;10.65;;;3.08;;
39974;SDS011;25652;52.852;6.602;2024-01-15T00:21:07;9.55;;;3.15;;
39974;SDS011;25652;52.852;6.602;2024-01-15T00:23:32;8.38;;;2.90;;
39974;SDS011;25652;52.852;6.602;2024-01-15T00:25:57;10.23;;;2.93;;
39974;SDS011;25652;52.852;6.602;2024-01-15T00:28:23;7.70;;;3.20;;
39974;SDS011;25652;52.852;6.602;2024-01-15T00:30:48;6.40;;;2.70;;
39974;SDS011;25652;52.852;6.602;2024-01-15T00:33:14;9.13;;;3.30;;
39974;SDS011;25652;52.852;6.602;2024-01-15T00:35:39;10.37;;;3.20;;
39974;SDS011;25652;52.852;6.602;2024-01-15T00:38:05;10.98;;;3.15;;
39974;SDS011;25652;52.852;6.602;2024-01-15T00:40:31;8.67;;;3.40;;
39974;SDS011;25652;52.852;6.602;2024-01-15T00:42:56;9.93;;;3.25;;
39974;SDS011;25652;52.852;6.602;2024-01-15T00:45:22;10.30;;;3.30;;
39974;SDS011;25652;52.852;6.602;2024-01-15T00:47:47;9.57;;;3.20;;
39974;SDS011;25652;52.852;6.602;2024-01-15T00:50:13;10.70;;;3.05;;
39974;SDS011;25652;52.852;6.602;2024-01-15T00:52:39;9.18;;;3.17;;
39974;SDS011;25652;52.852;6.602;2024-01-15T00:55:05;7.22;;;2.70;;
39974;SDS011;25652;52.852;6.602;2024-01-15T00:57:31;6.10;;;2.47;;
39974;SDS011;25652;52.852;6.602;2024-01-15T00:59:56;6.40;;;2.60;;
39974;SDS011;25652;52.852;6.602;2024-01-15T01:02:22;5.70;;;2.50;;
39974;SDS011;25652;52.852;6.602;2024-01-15T01:04:47;10.75;;;2.78;;
39974;SDS011;25652;52.852;6.602;2024-01-15T01:07:13;8.73;;;2.97;;
39974;SDS011;25652;52.852;6.602;2024-01-15T01:09:38;12.13;;;3.37;;
39974;SDS011;25652;52.852;6.602;2024-01-15T01:12:04;7.40;;;2.65;;
39974;SDS011;25652;52.852;6.602;2024-01-15T01:14:29;8.57;;;3.15;;
39974;SDS011;25652;52.852;6.602;2024-01-15T01:16:56;10.15;;;3.03;;
39974;SDS011;25652;52.852;6.602;2024-01-15T01:19:22;8.38;;;3.20;;
39974;SDS011;25652;52.852;6.602;2024-01-15T01:21:47;9.90;;;3.63;;
39974;SDS011;25652;52.852;6.602;2024-01-15T01:24:13;8.73;;;3.37;;
39974;SDS011;25652;52.852;6.602;2024-01-15T01:26:38;11.55;;;3.33;;
39974;SDS011;25652;52.852;6.602;2024-01-15T01:29:04;9.37;;;3.00;;
39974;SDS011;25652;52.852;6.602;2024-01-15T01:31:29;8.80;;;3.17;;
39974;SDS011;25652;52.852;6.602;2024-01-15T01:33:55;9.20;;;3.33;;
39974;SDS011;25652;52.852;6.602;2024-01-15T01:36:20;8.40;;;3.33;;
39974;SDS011;25652;52.852;6.602;2024-01-15T01:38:46;10.53;;;3.43;;
39974;SDS011;25652;52.852;6.602;2024-01-15T01:41:11;9.25;;;3.25;;
39974;SDS011;25652;52.852;6.602;2024-01-15T01:43:37;10.93;;;3.80;;
39974;SDS011;25652;52.852;6.602;2024-01-15T01:46:02;8.33;;;2.93;;
39974;SDS011;25652;52.852;6.602;2024-01-15T01:48:28;6.67;;;2.83;;
39974;SDS011;25652;52.852;6.602;2024-01-15T01:50:56;10.55;;;3.58;;
39974;SDS011;25652;52.852;6.602;2024-01-15T01:53:23;7.88;;;2.97;;
39974;SDS011;25652;52.852;6.602;2024-01-15T01:55:49;8.87;;;2.90;;
39974;SDS011;25652;52.852;6.602;2024-01-15T01:58:15;8.03;;;2.77;;
39974;SDS011;25652;52.852;6.602;2024-01-15T02:00:41;10.07;;;3.30;;
39974;SDS011;25652;52.852;6.602;2024-01-15T02:03:07;7.57;;;2.70;;
39974;SDS011;25652;52.852;6.602;2024-01-15T02:05:33;6.38;;;2.40;;
39974;SDS011;25652;52.852;6.602;2024-01-15T02:08:00;7.63;;;2.67;;
39974;SDS011;25652;52.852;6.602;2024-01-15T02:10:25;5.73;;;2.30;;
39974;SDS011;25652;52.852;6.602;2024-01-15T02:12:51;5.40;;;2.30;;
39974;SDS011;25652;52.852;6.602;2024-01-15T02:15:16;5.07;;;2.40;;
39974;SDS011;25652;52.852;6.602;2024-01-15T02:18:00;5.88;;;2.45;;
39974;SDS011;25652;52.852;6.602;2024-01-15T02:20:28;4.78;;;1.80;;
39974;SDS011;25652;52.852;6.602;2024-01-15T02:22:53;5.50;;;2.45;;
39974;SDS011;25652;52.852;6.602;2024-01-15T02:25:26;5.68;;;2.08;;
39974;SDS011;25652;52.852;6.602;2024-01-15T02:27:51;5.22;;;2.20;;
39974;SDS011;25652;52.852;6.602;2024-01-15T02:30:17;5.73;;;2.40;;
39974;SDS011;25652;52.852;6.602;2024-01-15T02:32:42;4.70;;;2.20;;
39974;SDS011;25652;52.852;6.602;2024-01-15T02:35:08;6.73;;;2.43;;
39974;SDS011;25652;52.852;6.602;2024-01-15T02:37:33;7.10;;;2.60;;
39974;SDS011;25652;52.852;6.602;2024-01-15T02:39:59;6.43;;;2.43;;
39974;SDS011;25652;52.852;6.602;2024-01-15T02:42:26;7.50;;;2.90;;
39974;SDS011;25652;52.852;6.602;2024-01-15T02:44:51;5.95;;;2.40;;
39974;SDS011;25652;52.852;6.602;2024-01-15T02:47:17;8.23;;;2.63;;
39974;SDS011;25652;52.852;6.602;2024-01-15T02:49:42;5.07;;;2.08;;
39974;SDS011;25652;52.852;6.602;2024-01-15T02:52:08;5.83;;;2.40;;
39974;SDS011;25652;52.852;6.602;2024-01-15T02:54:33;5.30;;;2.13;;
39974;SDS011;25652;52.852;6.602;2024-01-15T02:56:59;4.35;;;1.90;;
39974;SDS011;25652;52.852;6.602;2024-01-15T02:59:24;4.60;;;1.77;;
39974;SDS011;25652;52.852;6.602;2024-01-15T03:01:50;4.33;;;1.73;;
39974;SDS011;25652;52.852;6.602;2024-01-15T03:04:15;3.87;;;1.57;;
39974;SDS011;25652;52.852;6.602;2024-01-15T03:06:41;5.93;;;2.00;;
39974;SDS011;25652;52.852;6.602;2024-01-15T03:09:09;6.55;;;2.40;;
39974;SDS011;25652;52.852;6.602;2024-01-15T03:11:37;5.63;;;2.25;;
39974;SDS011;25652;52.852;6.602;2024-01-15T03:14:04;4.15;;;1.90;;
39974;SDS011;25652;52.852;6.602;2024-01-15T03:16:29;7.80;;;2.60;;
39974;SDS011;25652;52.852;6.602;2024-01-15T03:18:55;6.38;;;2.33;;
39974;SDS011;25652;52.852;6.602;2024-01-15T03:21:20;8.43;;;2.37;;
39974;SDS011;25652;52.852;6.602;2024-01-15T03:23:46;7.43;;;2.73;;
39974;SDS011;25652;52.852;6.602;2024-01-15T03:26:11;7.17;;;2.57;;
39974;SDS011;25652;52.852;6.602;2024-01-15T03:28:37;8.98;;;2.60;;
39974;SDS011;25652;52.852;6.602;2024-01-15T03:31:02;7.27;;;2.30;;
39974;SDS011;25652;52.852;6.602;2024-01-15T03:33:28;7.43;;;2.83;;
39974;SDS011;25652;52.852;6.602;2024-01-15T03:35:53;6.23;;;2.50;;
39974;SDS011;25652;52.852;6.602;2024-01-15T03:38:19;6.45;;;2.53;;
39974;SDS011;25652;52.852;6.602;2024-01-15T03:40:44;7.67;;;2.90;;
39974;SDS011;25652;52.852;6.602;2024-01-15T03:43:09;10.60;;;2.97;;
39974;SDS011;25652;52.852;6.602;2024-01-15T03:45:35;8.05;;;2.58;;
39974;SDS011;25652;52.852;6.602;2024-01-15T03:48:00;8.43;;;2.43;;
39974;SDS011;25652;52.852;6.602;2024-01-15T03:50:26;7.67;;;2.93;;
39974;SDS011;25652;52.852;6.602;2024-01-15T03:52:51;7.90;;;2.77;;
39974;SDS011;25652;52.852;6.602;2024-01-15T03:55:17;8.88;;;2.90;;
39974;SDS011;25652;52.852;6.602;2024-01-15T03:57:42;7.23;;;2.70;;
39974;SDS011;25652;52.852;6.602;2024-01-15T04:00:11;7.27;;;2.80;;
39974;SDS011;25652;52.852;6.602;2024-01-15T04:02:36;7.38;;;2.65;;
39974;SDS011;25652;52.852;6.602;2024-01-15T04:05:02;6.22;;;2.42;;
39974;SDS011;25652;52.852;6.602;2024-01-15T04:07:28;6.75;;;2.58;;
39974;SDS011;25652;52.852;6.602;2024-01-15T04:09:53;8.10;;;2.60;;
39974;SDS011;25652;52.852;6.602;2024-01-15T04:12:19;6.67;;;2.33;;
39974;SDS011;25652;52.852;6.602;2024-01-15T04:14:44;5.10;;;2.28;;
39974;SDS011;25652;52.852;6.602;2024-01-15T04:17:10;6.30;;;2.42;;
39974;SDS011;25652;52.852;6.602;2024-01-15T04:19:35;7.37;;;2.60;;
39974;SDS011;25652;52.852;6.602;2024-01-15T04:22:01;7.13;;;2.20;;
39974;SDS011;25652;52.852;6.602;2024-01-15T04:24:26;6.43;;;2.60;;
39974;SDS011;25652;52.852;6.602;2024-01-15T04:26:51;8.07;;;2.60;;
39974;SDS011;25652;52.852;6.602;2024-01-15T04:29:17;5.83;;;2.43;;
39974;SDS011;25652;52.852;6.602;2024-01-15T04:31:42;5.77;;;2.20;;
39974;SDS011;25652;52.852;6.602;2024-01-15T04:34:08;6.63;;;2.40;;
39974;SDS011;25652;52.852;6.602;2024-01-15T04:36:38;7.63;;;2.40;;
39974;SDS011;25652;52.852;6.602;2024-01-15T04:39:04;6.40;;;2.27;;
39974;SDS011;25652;52.852;6.602;2024-01-15T04:41:30;7.43;;;2.80;;
39974;SDS011;25652;52.852;6.602;2024-01-15T04:43:55;8.07;;;2.80;;
39974;SDS011;25652;52.852;6.602;2024-01-15T04:46:20;8.30;;;2.78;;
39974;SDS011;25652;52.852;6.602;2024-01-15T04:48:46;8.20;;;2.80;;
39974;SDS011;25652;52.852;6.602;2024-01-15T04:51:12;6.37;;;2.67;;
39974;SDS011;25652;52.852;6.602;2024-01-15T04:53:37;6.40;;;2.63;;
39974;SDS011;25652;52.852;6.602;2024-01-15T04:56:02;8.15;;;2.95;;
39974;SDS011;25652;52.852;6.602;2024-01-15T04:58:28;5.53;;;2.17;;
39974;SDS011;25652;52.852;6.602;2024-01-15T05:00:54;6.43;;;2.25;;
39974;SDS011;25652;52.852;6.602;2024-01-15T05:03:20;6.07;;;2.27;;
39974;SDS011;25652;52.852;6.602;2024-01-15T05:05:45;5.53;;;2.10;;
39974;SDS011;25652;52.852;6.602;2024-01-15T05:08:10;4.80;;;2.20;;
39974;SDS011;25652;52.852;6.602;2024-01-15T05:10:36;6.63;;;2.20;;
39974;SDS011;25652;52.852;6.602;2024-01-15T05:13:02;6.38;;;2.25;;
39974;SDS011;25652;52.852;6.602;2024-01-15T05:15:27;5.80;;;2.20;;
39974;SDS011;25652;52.852;6.602;2024-01-15T05:17:53;7.27;;;2.60;;
39974;SDS011;25652;52.852;6.602;2024-01-15T05:20:18;7.30;;;2.92;;
39974;SDS011;25652;52.852;6.602;2024-01-15T05:22:44;8.07;;;2.60;;
39974;SDS011;25652;52.852;6.602;2024-01-15T05:25:09;8.80;;;2.57;;
39974;SDS011;25652;52.852;6.602;2024-01-15T05:27:35;6.88;;;2.58;;
39974;SDS011;25652;52.852;6.602;2024-01-15T05:30:00;5.40;;;2.30;;
39974;SDS011;25652;52.852;6.602;2024-01-15T05:32:26;5.37;;;2.70;;
39974;SDS011;25652;52.852;6.602;2024-01-15T05:34:51;6.57;;;2.37;;
39974;SDS011;25652;52.852;6.602;2024-01-15T05:37:17;6.22;;;2.35;;
39974;SDS011;25652;52.852;6.602;2024-01-15T05:39:42;8.23;;;2.60;;
39974;SDS011;25652;52.852;6.602;2024-01-15T05:42:07;6.80;;;2.60;;
39974;SDS011;25652;52.852;6.602;2024-01-15T05:44:33;9.90;;;2.75;;
39974;SDS011;25652;52.852;6.602;2024-01-15T05:46:58;6.20;;;2.53;;
39974;SDS011;25652;52.852;6.602;2024-01-15T05:49:24;5.80;;;2.27;;
39974;SDS011;25652;52.852;6.602;2024-01-15T05:51:49;11.43;;;3.05;;
39974;SDS011;25652;52.852;6.602;2024-01-15T05:54:15;6.50;;;2.35;;
39974;SDS011;25652;52.852;6.602;2024-01-15T05:56:40;7.57;;;2.73;;
39974;SDS011;25652;52.852;6.602;2024-01-15T05:59:06;6.80;;;2.80;;
39974;SDS011;25652;52.852;6.602;2024-01-15T06:01:31;9.40;;;3.20;;
39974;SDS011;25652;52.852;6.602;2024-01-15T06:03:57;8.23;;;2.73;;
39974;SDS011;25652;52.852;6.602;2024-01-15T06:06:22;8.00;;;2.90;;
39974;SDS011;25652;52.852;6.602;2024-01-15T06:08:50;8.32;;;2.80;;
39974;SDS011;25652;52.852;6.602;2024-01-15T06:11:15;7.40;;;2.60;;
39974;SDS011;25652;52.852;6.602;2024-01-15T06:13:41;7.70;;;2.47;;
39974;SDS011;25652;52.852;6.602;2024-01-15T06:16:15;8.53;;;2.67;;
39974;SDS011;25652;52.852;6.602;2024-01-15T06:18:41;9.20;;;3.08;;
39974;SDS011;25652;52.852;6.602;2024-01-15T06:21:06;7.88;;;3.00;;
39974;SDS011;25652;52.852;6.602;2024-01-15T06:23:32;7.07;;;2.60;;
39974;SDS011;25652;52.852;6.602;2024-01-15T06:25:57;9.23;;;3.00;;
39974;SDS011;25652;52.852;6.602;2024-01-15T06:28:23;4.47;;;1.97;;
39974;SDS011;25652;52.852;6.602;2024-01-15T06:30:48;4.90;;;2.03;;
39974;SDS011;25652;52.852;6.602;2024-01-15T06:33:14;3.27;;;1.70;;
39974;SDS011;25652;52.852;6.602;2024-01-15T06:35:39;3.30;;;1.83;;
39974;SDS011;25652;52.852;6.602;2024-01-15T06:38:05;4.53;;;2.20;;
39974;SDS011;25652;52.852;6.602;2024-01-15T06:40:30;5.50;;;2.10;;
39974;SDS011;25652;52.852;6.602;2024-01-15T06:42:55;3.83;;;2.07;;
39974;SDS011;25652;52.852;6.602;2024-01-15T06:45:21;4.20;;;2.00;;
39974;SDS011;25652;52.852;6.602;2024-01-15T06:47:49;4.90;;;2.00;;
39974;SDS011;25652;52.852;6.602;2024-01-15T06:50:14;6.40;;;1.92;;
39974;SDS011;25652;52.852;6.602;2024-01-15T06:52:40;4.63;;;2.15;;
39974;SDS011;25652;52.852;6.602;2024-01-15T06:55:05;3.87;;;2.00;;
39974;SDS011;25652;52.852;6.602;2024-01-15T06:57:31;4.20;;;2.00;;
39974;SDS011;25652;52.852;6.602;2024-01-15T06:59:57;3.20;;;1.70;;
39974;SDS011;25652;52.852;6.602;2024-01-15T07:02:22;3.33;;;1.50;;
39974;SDS011;25652;52.852;6.602;2024-01-15T07:04:48;3.58;;;1.55;;
39974;SDS011;25652;52.852;6.602;2024-01-15T07:07:13;3.67;;;1.60;;
39974;SDS011;25652;52.852;6.602;2024-01-15T07:09:38;5.47;;;2.08;;
39974;SDS011;25652;52.852;6.602;2024-01-15T07:12:04;4.50;;;1.97;;
39974;SDS011;25652;52.852;6.602;2024-01-15T07:14:30;4.50;;;1.73;;
39974;SDS011;25652;52.852;6.602;2024-01-15T07:16:55;4.25;;;2.20;;
39974;SDS011;25652;52.852;6.602;2024-01-15T07:19:20;4.60;;;2.00;;
39974;SDS011;25652;52.852;6.602;2024-01-15T07:21:46;4.85;;;1.95;;
39974;SDS011;25652;52.852;6.602;2024-01-15T07:24:19;6.27;;;2.17;;
39974;SDS011;25652;52.852;6.602;2024-01-15T07:26:47;5.75;;;2.63;;
39974;SDS011;25652;52.852;6.602;2024-01-15T07:29:14;8.73;;;2.95;;
39974;SDS011;25652;52.852;6.602;2024-01-15T07:31:40;6.68;;;2.70;;
39974;SDS011;25652;52.852;6.602;2024-01-15T07:34:12;7.77;;;2.87;;
39974;SDS011;25652;52.852;6.602;2024-01-15T07:36:37;8.17;;;3.27;;
39974;SDS011;25652;52.852;6.602;2024-01-15T07:39:02;7.47;;;2.95;;
39974;SDS011;25652;52.852;6.602;2024-01-15T07:41:28;7.97;;;3.27;;
39974;SDS011;25652;52.852;6.602;2024-01-15T07:43:53;7.68;;;3.40;;
39974;SDS011;25652;52.852;6.602;2024-01-15T07:46:19;9.43;;;3.10;;
39974;SDS011;25652;52.852;6.602;2024-01-15T07:48:44;8.90;;;3.33;;
39974;SDS011;25652;52.852;6.602;2024-01-15T07:51:10;7.60;;;2.90;;
39974;SDS011;25652;52.852;6.602;2024-01-15T07:53:35;6.37;;;2.70;;
39974;SDS011;25652;52.852;6.602;2024-01-15T07:56:01;7.30;;;2.75;;
39974;SDS011;25652;52.852;6.602;2024-01-15T07:58:26;10.60;;;3.20;;
39974;SDS011;25652;52.852;6.602;2024-01-15T08:00:52;9.00;;;3.10;;
39974;SDS011;25652;52.852;6.602;2024-01-15T08:03:17;6.22;;;2.58;;
39974;SDS011;25652;52.852;6.602;2024-01-15T08:05:43;8.03;;;3.07;;
39974;SDS011;25652;52.852;6.602;2024-01-15T08:08:08;5.72;;;2.70;;
39974;SDS011;25652;52.852;6.602;2024-01-15T08:10:34;6.97;;;3.00;;
39974;SDS011;25652;52.852;6.602;2024-01-15T08:12:59;11.10;;;3.23;;
39974;SDS011;25652;52.852;6.602;2024-01-15T08:15:24;8.73;;;3.05;;
39974;SDS011;25652;52.852;6.602;2024-01-15T08:17:50;7.47;;;2.87;;
39974;SDS011;25652;52.852;6.602;2024-01-15T08:20:15;8.50;;;3.10;;
39974;SDS011;25652;52.852;6.602;2024-01-15T08:22:41;8.20;;;2.80;;
39974;SDS011;25652;52.852;6.602;2024-01-15T08:25:06;10.00;;;3.50;;
39974;SDS011;25652;52.852;6.602;2024-01-15T08:27:33;6.75;;;2.60;;
39974;SDS011;25652;52.852;6.602;2024-01-15T08:29:59;9.33;;;3.27;;
39974;SDS011;25652;52.852;6.602;2024-01-15T08:32:24;7.60;;;2.67;;
39974;SDS011;25652;52.852;6.602;2024-01-15T08:34:50;7.57;;;2.93;;
39974;SDS011;25652;52.852;6.602;2024-01-15T08:37:15;7.80;;;2.97;;
39974;SDS011;25652;52.852;6.602;2024-01-15T08:39:41;8.00;;;2.88;;
39974;SDS011;25652;52.852;6.602;2024-01-15T08:42:06;7.37;;;2.73;;
39974;SDS011;25652;52.852;6.602;2024-01-15T08:44:31;7.60;;;2.83;;
39974;SDS011;25652;52.852;6.602;2024-01-15T08:46:57;10.23;;;3.33;;
39974;SDS011;25652;52.852;6.602;2024-01-15T08:49:22;8.50;;;2.87;;
39974;SDS011;25652;52.852;6.602;2024-01-15T08:51:48;9.53;;;2.83;;
39974;SDS011;25652;52.852;6.602;2024-01-15T08:54:13;5.45;;;2.60;;
39974;SDS011;25652;52.852;6.602;2024-01-15T08:56:39;9.27;;;3.10;;
39974;SDS011;25652;52.852;6.602;2024-01-15T08:59:04;9.43;;;3.23;;
39974;SDS011;25652;52.852;6.602;2024-01-15T09:01:30;6.80;;;3.00;;
39974;SDS011;25652;52.852;6.602;2024-01-15T09:03:56;10.03;;;3.20;;
39974;SDS011;25652;52.852;6.602;2024-01-15T09:06:21;11.10;;;3.40;;
39974;SDS011;25652;52.852;6.602;2024-01-15T09:08:46;9.30;;;3.17;;
39974;SDS011;25652;52.852;6.602;2024-01-15T09:11:12;9.15;;;3.35;;
39974;SDS011;25652;52.852;6.602;2024-01-15T09:13:37;9.00;;;2.93;;
39974;SDS011;25652;52.852;6.602;2024-01-15T09:16:03;8.43;;;3.37;;
39974;SDS011;25652;52.852;6.602;2024-01-15T09:18:29;9.35;;;3.25;;
39974;SDS011;25652;52.852;6.602;2024-01-15T09:20:54;9.90;;;3.30;;
39974;SDS011;25652;52.852;6.602;2024-01-15T09:23:20;9.38;;;3.00;;
39974;SDS011;25652;52.852;6.602;2024-01-15T09:25:45;8.93;;;3.03;;
39974;SDS011;25652;52.852;6.602;2024-01-15T09:28:11;8.03;;;3.07;;
39974;SDS011;25652;52.852;6.602;2024-01-15T09:30:36;7.57;;;2.67;;
39974;SDS011;25652;52.852;6.602;2024-01-15T09:33:02;8.93;;;2.70;;
39974;SDS011;25652;52.852;6.602;2024-01-15T09:35:27;8.55;;;3.40;;
39974;SDS011;25652;52.852;6.602;2024-01-15T09:37:53;8.90;;;2.88;;
39974;SDS011;25652;52.852;6.602;2024-01-15T09:40:18;8.80;;;3.03;;
39974;SDS011;25652;52.852;6.602;2024-01-15T09:42:45;8.13;;;3.40;;
39974;SDS011;25652;52.852;6.602;2024-01-15T09:45:12;8.23;;;2.95;;
39974;SDS011;25652;52.852;6.602;2024-01-15T09:47:38;7.87;;;3.10;;
39974;SDS011;25652;52.852;6.602;2024-01-15T09:50:05;9.00;;;3.08;;
39974;SDS011;25652;52.852;6.602;2024-01-15T09:52:31;5.97;;;2.75;;
39974;SDS011;25652;52.852;6.602;2024-01-15T09:54:58;7.70;;;3.00;;
39974;SDS011;25652;52.852;6.602;2024-01-15T09:57:25;6.15;;;2.60;;
39974;SDS011;25652;52.852;6.602;2024-01-15T09:59:50;7.03;;;2.90;;
39974;SDS011;25652;52.852;6.602;2024-01-15T10:02:18;7.05;;;2.80;;
39974;SDS011;25652;52.852;6.602;2024-01-15T10:04:44;6.43;;;2.70;;
39974;SDS011;25652;52.852;6.602;2024-01-15T10:07:10;7.90;;;3.10;;
39974;SDS011;25652;52.852;6.602;2024-01-15T10:09:40;7.28;;;2.47;;
39974;SDS011;25652;52.852;6.602;2024-01-15T10:12:05;6.63;;;2.83;;
39974;SDS011;25652;52.852;6.602;2024-01-15T10:14:32;6.97;;;2.78;;
39974;SDS011;25652;52.852;6.602;2024-01-15T10:16:57;5.73;;;2.93;;
39974;SDS011;25652;52.852;6.602;2024-01-15T10:19:23;7.83;;;2.80;;
39974;SDS011;25652;52.852;6.602;2024-01-15T10:21:48;6.38;;;2.72;;
39974;SDS011;25652;52.852;6.602;2024-01-15T10:24:14;7.43;;;2.63;;
39974;SDS011;25652;52.852;6.602;2024-01-15T10:26:39;10.90;;;3.57;;
39974;SDS011;25652;52.852;6.602;2024-01-15T10:29:05;8.07;;;3.00;;
39974;SDS011;25652;52.852;6.602;2024-01-15T10:31:30;7.20;;;2.60;;
39974;SDS011;25652;52.852;6.602;2024-01-15T10:34:04;9.50;;;3.30;;
39974;SDS011;25652;52.852;6.602;2024-01-15T10:36:39;7.20;;;2.78;;
39974;SDS011;25652;52.852;6.602;2024-01-15T10:39:05;6.63;;;2.50;;
39974;SDS011;25652;52.852;6.602;2024-01-15T10:41:31;7.47;;;2.80;;
39974;SDS011;25652;52.852;6.602;2024-01-15T10:43:57;7.85;;;2.72;;
39974;SDS011;25652;52.852;6.602;2024-01-15T10:46:22;7.17;;;2.33;;
39974;SDS011;25652;52.852;6.602;2024-01-15T10:48:48;7.90;;;2.80;;
39974;SDS011;25652;52.852;6.602;2024-01-15T10:51:13;5.97;;;2.33;;
39974;SDS011;25652;52.852;6.602;2024-01-15T10:53:39;6.88;;;2.90;;
39974;SDS011;25652;52.852;6.602;2024-01-15T10:56:06;7.93;;;2.75;;
39974;SDS011;25652;52.852;6.602;2024-01-15T10:58:34;5.47;;;2.33;;
39974;SDS011;25652;52.852;6.602;2024-01-15T11:01:02;6.45;;;2.60;;
39974;SDS011;25652;52.852;6.602;2024-01-15T11:03:28;7.85;;;2.40;;
39974;SDS011;25652;52.852;6.602;2024-01-15T11:05:54;7.00;;;2.38;;
39974;SDS011;25652;52.852;6.602;2024-01-15T11:08:19;5.80;;;2.42;;
39974;SDS011;25652;52.852;6.602;2024-01-15T11:10:46;6.90;;;2.60;;
39974;SDS011;25652;52.852;6.602;2024-01-15T11:16:06;8.65;;;2.42;;
39974;SDS011;25652;52.852;6.602;2024-01-15T11:18:37;7.32;;;2.80;;
39974;SDS011;25652;52.852;6.602;2024-01-15T11:23:49;5.90;;;2.57;;
39974;SDS011;25652;52.852;6.602;2024-01-15T11:26:32;4.85;;;1.90;;
39974;SDS011;25652;52.852;6.602;2024-01-15T11:29:05;4.75;;;1.92;;
39974;SDS011;25652;52.852;6.602;2024-01-15T11:34:04;4.40;;;2.03;;
39974;SDS011;25652;52.852;6.602;2024-01-15T11:41:55;4.03;;;1.70;;
39974;SDS011;25652;52.852;6.602;2024-01-15T11:44:25;6.18;;;2.03;;
39974;SDS011;25652;52.852;6.602;2024-01-15T11:47:04;5.30;;;2.03;;
39974;SDS011;25652;52.852;6.602;2024-01-15T11:52:25;4.22;;;1.98;;
39974;SDS011;25652;52.852;6.602;2024-01-15T11:57:29;5.50;;;1.95;;
39974;SDS011;25652;52.852;6.602;2024-01-15T11:59:56;4.40;;;1.70;;
39974;SDS011;25652;52.852;6.602;2024-01-15T12:02:21;3.53;;;1.67;;
39974;SDS011;25652;52.852;6.602;2024-01-15T12:04:47;4.03;;;1.50;;
39974;SDS011;25652;52.852;6.602;2024-01-15T12:07:17;4.20;;;1.97;;
39974;SDS011;25652;52.852;6.602;2024-01-15T12:09:45;4.15;;;1.60;;
39974;SDS011;25652;52.852;6.602;2024-01-15T12:12:11;5.20;;;1.80;;
39974;SDS011;25652;52.852;6.602;2024-01-15T12:14:47;5.55;;;2.00;;
39974;SDS011;25652;52.852;6.602;2024-01-15T12:17:12;6.03;;;1.93;;
39974;SDS011;25652;52.852;6.602;2024-01-15T12:19:38;7.10;;;2.20;;
39974;SDS011;25652;52.852;6.602;2024-01-15T12:22:04;4.18;;;1.73;;
39974;SDS011;25652;52.852;6.602;2024-01-15T12:24:29;4.67;;;1.80;;
39974;SDS011;25652;52.852;6.602;2024-01-15T12:26:55;5.17;;;1.57;;
39974;SDS011;25652;52.852;6.602;2024-01-15T12:29:20;3.25;;;1.48;;
39974;SDS011;25652;52.852;6.602;2024-01-15T12:31:48;4.53;;;1.63;;
39974;SDS011;25652;52.852;6.602;2024-01-15T12:34:14;3.78;;;1.80;;
39974;SDS011;25652;52.852;6.602;2024-01-15T12:36:40;3.33;;;1.38;;
39974;SDS011;25652;52.852;6.602;2024-01-15T12:39:05;3.78;;;1.60;;
39974;SDS011;25652;52.852;6.602;2024-01-15T12:41:36;3.17;;;1.30;;
39974;SDS011;25652;52.852;6.602;2024-01-15T12:44:03;4.13;;;1.60;;
39974;SDS011;25652;52.852;6.602;2024-01-15T12:46:29;5.70;;;2.17;;
39974;SDS011;25652;52.852;6.602;2024-01-15T12:48:55;2.78;;;1.30;;
39974;SDS011;25652;52.852;6.602;2024-01-15T12:51:24;6.13;;;1.70;;
39974;SDS011;25652;52.852;6.602;2024-01-15T12:53:50;3.05;;;1.67;;
39974;SDS011;25652;52.852;6.602;2024-01-15T12:56:15;4.47;;;1.77;;
39974;SDS011;25652;52.852;6.602;2024-01-15T12:58:41;5.27;;;1.73;;
39974;SDS011;25652;52.852;6.602;2024-01-15T13:01:06;4.23;;;1.70;;
39974;SDS011;25652;52.852;6.602;2024-01-15T13:03:32;3.67;;;1.47;;
39974;SDS011;25652;52.852;6.602;2024-01-15T13:05:57;4.60;;;1.48;;
39974;SDS011;25652;52.852;6.602;2024-01-15T13:08:23;4.63;;;1.60;;
39974;SDS011;25652;52.852;6.602;2024-01-15T13:10:48;3.70;;;1.50;;
39974;SDS011;25652;52.852;6.602;2024-01-15T13:13:14;3.88;;;1.63;;
39974;SDS011;25652;52.852;6.602;2024-01-15T13:15:39;3.60;;;1.60;;
39974;SDS011;25652;52.852;6.602;2024-01-15T13:18:05;4.00;;;1.50;;
39974;SDS011;25652;52.852;6.602;2024-01-15T13:20:31;5.22;;;2.10;;
39974;SDS011;25652;52.852;6.602;2024-01-15T13:22:56;6.40;;;1.87;;
39974;SDS011;25652;52.852;6.602;2024-01-15T13:25:22;3.85;;;1.77;;
39974;SDS011;25652;52.852;6.602;2024-01-15T13:27:47;4.60;;;1.87;;
39974;SDS011;25652;52.852;6.602;2024-01-15T13:30:13;3.70;;;1.77;;
39974;SDS011;25652;52.852;6.602;2024-01-15T13:32:38;4.67;;;2.00;;
39974;SDS011;25652;52.852;6.602;2024-01-15T13:35:04;4.55;;;1.70;;
39974;SDS011;25652;52.852;6.602;2024-01-15T13:37:29;4.47;;;1.55;;
39974;SDS011;25652;52.852;6.602;2024-01-15T13:39:55;5.70;;;2.10;;
39974;SDS011;25652;52.852;6.602;2024-01-15T13:42:20;4.57;;;1.70;;
39974;SDS011;25652;52.852;6.602;2024-01-15T13:44:46;4.33;;;1.73;;
39974;SDS011;25652;52.852;6.602;2024-01-15T13:47:11;4.65;;;1.95;;
39974;SDS011;25652;52.852;6.602;2024-01-15T13:49:37;5.30;;;2.13;;
39974;SDS011;25652;52.852;6.602;2024-01-15T13:52:03;4.40;;;1.77;;
39974;SDS011;25652;52.852;6.602;2024-01-15T13:54:28;3.42;;;1.80;;
39974;SDS011;25652;52.852;6.602;2024-01-15T13:56:54;4.37;;;1.93;;
39974;SDS011;25652;52.852;6.602;2024-01-15T13:59:19;6.13;;;2.23;;
39974;SDS011;25652;52.852;6.602;2024-01-15T14:01:45;5.07;;;1.90;;
39974;SDS011;25652;52.852;6.602;2024-01-15T14:04:10;3.95;;;1.73;;
39974;SDS011;25652;52.852;6.602;2024-01-15T14:06:36;4.53;;;1.90;;
39974;SDS011;25652;52.852;6.602;2024-01-15T14:09:01;4.43;;;1.67;;
39974;SDS011;25652;52.852;6.602;2024-01-15T14:11:27;4.72;;;1.92;;
39974;SDS011;25652;52.852;6.602;2024-01-15T14:13:52;4.32;;;1.88;;
39974;SDS011;25652;52.852;6.602;2024-01-15T14:16:18;4.17;;;1.70;;
39974;SDS011;25652;52.852;6.602;2024-01-15T14:18:43;6.00;;;1.80;;
39974;SDS011;25652;52.852;6.602;2024-01-15T14:21:09;5.25;;;2.08;;
39974;SDS011;25652;52.852;6.602;2024-01-15T14:23:34;6.30;;;2.00;;
39974;SDS011;25652;52.852;6.602;2024-01-15T14:26:00;5.10;;;2.10;;
39974;SDS011;25652;52.852;6.602;2024-01-15T14:28:25;5.32;;;2.28;;
39974;SDS011;25652;52.852;6.602;2024-01-15T14:30:50;3.92;;;1.80;;
39974;SDS011;25652;52.852;6.602;2024-01-15T14:33:16;4.97;;;1.77;;
39974;SDS011;25652;52.852;6.602;2024-01-15T14:35:41;5.50;;;2.20;;
39974;SDS011;25652;52.852;6.602;2024-01-15T14:38:07;7.10;;;2.38;;
39974;SDS011;25652;52.852;6.602;2024-01-15T14:40:33;5.77;;;2.27;;
39974;SDS011;25652;52.852;6.602;2024-01-15T14:42:59;5.63;;;2.03;;
39974;SDS011;25652;52.852;6.602;2024-01-15T14:45:25;4.57;;;1.70;;
39974;SDS011;25652;52.852;6.602;2024-01-15T14:47:50;4.13;;;1.80;;
39974;SDS011;25652;52.852;6.602;2024-01-15T14:50:15;6.00;;;2.30;;
39974;SDS011;25652;52.852;6.602;2024-01-15T14:52:41;8.73;;;2.47;;
39974;SDS011;25652;52.852;6.602;2024-01-15T14:55:07;6.83;;;2.17;;
39974;SDS011;25652;52.852;6.602;2024-01-15T14:57:32;7.40;;;2.38;;